createdAt,value
2023-05-21T00:01:21.434Z,86.85
2023-05-21T00:04:28.779Z,86.35
2023-05-21T00:07:28.376Z,86.01
2023-05-21T00:10:27.324Z,86.16
2023-05-21T00:13:27.602Z,86.15
2023-05-21T00:16:19.097Z,86.35
2023-05-21T00:19:26.345Z,86.92
2023-05-21T00:22:26.123Z,87.09
2023-05-21T00:25:24.836Z,87.32
2023-05-21T00:28:23.547Z,87.57
2023-05-21T00:31:23.910Z,87.49
2023-05-21T00:34:15.772Z,87.64
2023-05-21T00:37:14.722Z,88.14
2023-05-21T00:40:09.366Z,88.41
2023-05-21T00:43:08.290Z,88.87
2023-05-21T00:46:07.686Z,89.00
2023-05-21T00:49:10.399Z,89.66
2023-05-21T00:52:10.078Z,90.03
2023-05-21T00:55:09.296Z,90.36
2023-05-21T00:58:16.424Z,90.34
2023-05-21T01:01:16.196Z,90.92
2023-05-21T01:04:23.548Z,91.65
2023-05-21T01:07:23.304Z,92.60
2023-05-21T01:10:22.013Z,93.69
2023-05-21T01:13:20.768Z,93.81
2023-05-21T01:16:19.567Z,93.98
2023-05-21T01:19:26.994Z,93.95
2023-05-21T01:22:25.753Z,93.63
2023-05-21T01:25:24.485Z,93.61
2023-05-21T01:28:31.498Z,93.48
2023-05-21T01:31:30.272Z,93.46
2023-05-21T01:34:37.347Z,93.42
2023-05-21T01:37:37.398Z,93.13
2023-05-21T01:40:37.160Z,92.90
2023-05-21T01:43:37.775Z,92.91
2023-05-21T01:46:45.051Z,92.96
2023-05-21T01:49:43.887Z,93.05
2023-05-21T01:52:42.576Z,92.92
2023-05-21T01:55:42.420Z,92.99
2023-05-21T01:58:41.330Z,92.98
2023-05-21T02:01:40.328Z,92.78
2023-05-21T02:04:40.106Z,92.50
2023-05-21T02:07:38.839Z,92.54
2023-05-21T02:10:37.631Z,92.29
2023-05-21T02:13:37.436Z,92.35
2023-05-21T02:16:38.683Z,92.61
2023-05-21T02:19:40.048Z,92.74
2023-05-21T02:22:38.800Z,92.87
2023-05-21T02:25:46.685Z,93.16
2023-05-21T02:28:46.378Z,93.41
2023-05-21T02:31:46.082Z,93.68
2023-05-21T02:34:44.781Z,93.66
2023-05-21T02:37:43.521Z,93.49
2023-05-21T02:40:42.284Z,93.50
2023-05-21T02:43:41.221Z,93.48
2023-05-21T02:46:39.921Z,93.26
2023-05-21T02:49:46.953Z,93.26
2023-05-21T02:52:46.828Z,93.14
2023-05-21T02:55:45.749Z,92.77
2023-05-21T02:58:44.754Z,92.36
2023-05-21T03:01:43.534Z,92.66
2023-05-21T03:04:47.368Z,92.51
2023-05-21T03:07:37.736Z,92.09
2023-05-21T03:10:45.094Z,92.12
2023-05-21T03:13:43.836Z,92.70
2023-05-21T03:16:51.321Z,92.53
2023-05-21T03:19:52.360Z,91.81
2023-05-21T03:22:59.512Z,92.03
2023-05-21T03:25:49.544Z,92.19
2023-05-21T03:28:50.632Z,92.47
2023-05-21T03:31:50.410Z,92.31
2023-05-21T03:34:57.625Z,91.78
2023-05-21T03:37:57.350Z,92.08
2023-05-21T03:40:58.492Z,91.95
2023-05-21T03:44:05.836Z,92.20
2023-05-21T03:47:12.983Z,92.14
2023-05-21T03:50:11.936Z,92.01
2023-05-21T03:53:11.937Z,92.04
2023-05-21T03:56:11.052Z,91.85
2023-05-21T03:59:09.816Z,91.67
2023-05-21T04:02:08.673Z,91.36
2023-05-21T04:05:08.468Z,90.81
2023-05-21T04:08:08.410Z,90.67
2023-05-21T04:11:08.776Z,90.57
2023-05-21T04:14:07.722Z,90.21
2023-05-21T04:17:08.360Z,89.97
2023-05-21T04:20:08.084Z,89.55
2023-05-21T04:23:07.755Z,89.24
2023-05-21T04:26:07.713Z,89.19
2023-05-21T04:29:07.545Z,88.66
2023-05-21T04:32:13.037Z,87.73
2023-05-21T04:35:11.798Z,87.18
2023-05-21T04:38:10.947Z,86.30
2023-05-21T04:41:09.721Z,85.38
2023-05-21T04:44:09.700Z,83.95
2023-05-21T04:47:09.675Z,82.81
2023-05-21T04:50:13.400Z,81.01
2023-05-21T04:53:12.145Z,80.13
2023-05-21T04:56:10.878Z,78.57
2023-05-21T04:59:09.624Z,77.29
2023-05-21T05:02:16.796Z,75.99
2023-05-21T05:05:15.523Z,75.53
2023-05-21T05:08:16.286Z,74.74
2023-05-21T05:10:56.285Z,73.78
2023-05-21T05:13:56.262Z,72.40
2023-05-21T05:16:54.926Z,70.86
2023-05-21T05:20:02.407Z,70.10
2023-05-21T05:22:52.740Z,69.57
2023-05-21T05:25:51.520Z,69.57
2023-05-21T05:28:54.156Z,68.71
2023-05-21T05:31:53.069Z,67.38
2023-05-21T05:34:48.327Z,65.35
2023-05-21T05:37:47.074Z,63.40
2023-05-21T05:40:53.772Z,61.10
2023-05-21T05:43:52.542Z,58.78
2023-05-21T05:46:59.246Z,56.16
2023-05-21T05:49:59.120Z,52.60
2023-05-21T05:52:57.854Z,49.10
2023-05-21T05:55:56.912Z,47.17
2023-05-21T05:58:55.609Z,45.98
2023-05-21T06:01:56.797Z,44.41
2023-05-21T06:04:55.484Z,43.70
2023-05-21T06:07:55.277Z,43.21
2023-05-21T06:11:01.235Z,42.42
2023-05-21T06:14:08.357Z,42.83
2023-05-21T06:17:10.518Z,44.76
2023-05-21T06:20:10.305Z,47.43
2023-05-21T06:23:09.045Z,50.28
2023-05-21T06:26:07.872Z,60.21
2023-05-21T06:29:06.858Z,75.44
2023-05-21T06:32:05.639Z,67.27
2023-05-21T06:35:05.380Z,64.30
2023-05-21T06:38:05.548Z,61.63
2023-05-21T06:41:05.466Z,61.56
2023-05-21T06:44:05.202Z,61.38
2023-05-21T06:47:12.252Z,61.74
2023-05-21T06:50:19.437Z,60.92
2023-05-21T06:53:18.204Z,60.55
2023-05-21T06:56:17.975Z,60.88
2023-05-21T06:59:25.104Z,61.59
2023-05-21T07:02:24.362Z,61.61
2023-05-21T07:05:25.180Z,61.81
2023-05-21T07:08:32.369Z,62.25
2023-05-21T07:11:31.110Z,62.35
2023-05-21T07:14:29.854Z,62.56
2023-05-21T07:17:28.805Z,62.74
2023-05-21T07:20:27.634Z,61.99
2023-05-21T07:23:27.746Z,62.38
2023-05-21T07:26:27.665Z,63.21
2023-05-21T07:29:34.702Z,63.13
2023-05-21T07:32:34.519Z,62.86
2023-05-21T07:35:30.795Z,62.42
2023-05-21T07:38:29.583Z,62.71
2023-05-21T07:41:29.363Z,63.13
2023-05-21T07:44:28.542Z,62.77
2023-05-21T07:47:29.566Z,62.30
2023-05-21T07:50:29.372Z,62.42
2023-05-21T07:53:28.293Z,62.95
2023-05-21T07:56:28.311Z,62.55
2023-05-21T07:59:27.016Z,62.14
2023-05-21T08:02:26.445Z,62.44
2023-05-21T08:05:26.301Z,62.49
2023-05-21T08:08:26.532Z,62.98
2023-05-21T08:11:26.257Z,63.16
2023-05-21T08:14:28.191Z,63.06
2023-05-21T08:17:27.917Z,62.69
2023-05-21T08:20:26.722Z,62.82
2023-05-21T08:23:26.321Z,62.13
2023-05-21T08:26:41.819Z,62.19
2023-05-21T08:29:40.548Z,62.82
2023-05-21T08:32:40.307Z,62.14
2023-05-21T08:35:40.271Z,61.92
2023-05-21T08:38:47.418Z,61.19
2023-05-21T08:41:54.471Z,61.28
2023-05-21T08:44:53.266Z,61.11
2023-05-21T08:47:53.519Z,60.88
2023-05-21T08:50:53.305Z,60.77
2023-05-21T08:54:00.903Z,60.71
2023-05-21T08:56:59.752Z,60.08
2023-05-21T09:00:06.958Z,59.90
2023-05-21T09:03:05.744Z,58.60
2023-05-21T09:06:08.510Z,59.22
2023-05-21T09:08:58.945Z,58.63
2023-05-21T09:11:57.700Z,58.66
2023-05-21T09:14:57.413Z,57.59
2023-05-21T09:17:59.416Z,56.87
2023-05-21T09:20:59.486Z,56.13
2023-05-21T09:23:58.296Z,55.99
2023-05-21T09:26:58.015Z,56.16
2023-05-21T09:29:56.808Z,54.70
2023-05-21T09:32:55.795Z,53.38
2023-05-21T09:35:54.558Z,53.42
2023-05-21T09:38:56.194Z,53.25
2023-05-21T09:41:57.155Z,53.95
2023-05-21T09:45:04.319Z,53.93
2023-05-21T09:48:05.704Z,53.31
2023-05-21T09:51:05.755Z,53.23
2023-05-21T09:54:04.529Z,53.04
2023-05-21T09:57:03.304Z,53.48
2023-05-21T10:00:08.102Z,53.74
2023-05-21T10:03:09.006Z,53.43
2023-05-21T10:06:07.783Z,52.14
2023-05-21T10:09:07.096Z,52.08
2023-05-21T10:12:05.809Z,52.09
2023-05-21T10:15:05.842Z,52.58
2023-05-21T10:18:04.664Z,52.53
2023-05-21T10:21:06.272Z,51.43
2023-05-21T10:24:05.029Z,51.60
2023-05-21T10:27:03.828Z,52.38
2023-05-21T10:29:55.944Z,52.75
2023-05-21T10:32:55.443Z,52.32
2023-05-21T10:36:03.075Z,51.86
2023-05-21T10:39:01.900Z,50.12
2023-05-21T10:41:55.361Z,48.99
2023-05-21T10:44:47.045Z,49.12
2023-05-21T10:47:48.932Z,49.09
2023-05-21T10:50:40.428Z,49.76
2023-05-21T10:53:29.786Z,49.34
2023-05-21T10:56:37.760Z,50.27
2023-05-21T10:59:43.366Z,50.47
2023-05-21T11:02:43.389Z,49.95
2023-05-21T11:05:43.613Z,49.58
2023-05-21T11:08:54.935Z,50.43
2023-05-21T11:11:56.459Z,50.38
2023-05-21T11:14:57.438Z,49.20
2023-05-21T11:17:58.329Z,48.36
2023-05-21T11:21:06.049Z,49.11
2023-05-21T11:24:07.820Z,48.64
2023-05-21T11:27:01.459Z,48.53
2023-05-21T11:30:07.483Z,48.90
2023-05-21T11:33:10.327Z,48.80
2023-05-21T11:36:02.772Z,47.94
2023-05-21T11:39:01.584Z,48.14
2023-05-21T11:42:08.691Z,49.38
2023-05-21T11:45:00.490Z,49.14
2023-05-21T11:48:07.724Z,49.16
2023-05-21T11:51:13.274Z,49.68
2023-05-21T11:54:11.981Z,49.15
2023-05-21T11:57:10.779Z,48.50
2023-05-21T12:00:09.772Z,48.56
2023-05-21T12:03:08.677Z,47.75
2023-05-21T12:06:25.162Z,48.21
2023-05-21T12:09:30.963Z,48.68
2023-05-21T12:12:41.784Z,48.55
2023-05-21T12:15:49.841Z,48.53
2023-05-21T12:18:41.035Z,48.48
2023-05-21T12:21:40.383Z,48.14
2023-05-21T12:24:41.246Z,48.70
2023-05-21T12:27:41.066Z,47.53
2023-05-21T12:30:41.924Z,47.49
2023-05-21T12:33:41.126Z,47.68
2023-05-21T12:36:31.474Z,47.07
2023-05-21T12:39:31.532Z,47.24
2023-05-21T12:42:30.593Z,47.47
2023-05-21T12:45:30.912Z,47.40
2023-05-21T12:48:29.996Z,47.55
2023-05-21T12:51:28.975Z,46.23
2023-05-21T12:54:27.693Z,46.20
2023-05-21T12:57:27.427Z,46.56
2023-05-21T13:00:11.064Z,45.69
2023-05-21T13:03:05.016Z,46.70
2023-05-21T13:06:04.392Z,45.91
2023-05-21T13:09:04.181Z,45.61
2023-05-21T13:12:02.976Z,46.04
2023-05-21T13:15:05.587Z,45.91
2023-05-21T13:18:04.283Z,45.35
2023-05-21T13:21:11.906Z,46.07
2023-05-21T13:24:11.755Z,45.23
2023-05-21T13:27:10.514Z,45.74
2023-05-21T13:30:17.848Z,46.05
2023-05-21T13:33:17.264Z,45.92
2023-05-21T13:36:16.066Z,45.91
2023-05-21T13:39:15.035Z,46.10
2023-05-21T13:42:14.346Z,46.16
2023-05-21T13:45:13.076Z,44.92
2023-05-21T13:48:12.261Z,44.42
2023-05-21T13:51:37.085Z,44.07
2023-05-21T13:54:40.104Z,43.38
2023-05-21T13:57:38.951Z,43.18
2023-05-21T14:00:38.974Z,44.00
2023-05-21T14:03:39.292Z,44.47
2023-05-21T14:06:46.563Z,45.25
2023-05-21T14:09:46.322Z,45.15
2023-05-21T14:12:45.065Z,43.50
2023-05-21T14:15:44.991Z,43.12
2023-05-21T14:18:37.596Z,43.76
2023-05-21T14:21:38.683Z,43.98
2023-05-21T14:24:40.061Z,44.02
2023-05-21T14:27:41.181Z,43.86
2023-05-21T14:30:41.143Z,43.41
2023-05-21T14:33:30.063Z,42.67
2023-05-21T14:36:30.007Z,43.08
2023-05-21T14:39:27.272Z,43.26
2023-05-21T14:42:26.227Z,43.34
2023-05-21T14:45:33.430Z,43.34
2023-05-21T14:48:25.686Z,43.27
2023-05-21T14:51:32.847Z,43.70
2023-05-21T14:54:35.906Z,43.35
2023-05-21T14:57:34.718Z,43.31
2023-05-21T15:00:34.464Z,42.89
2023-05-21T15:03:34.226Z,43.01
2023-05-21T15:06:41.384Z,42.68
2023-05-21T15:09:40.445Z,43.22
2023-05-21T15:12:40.816Z,43.14
2023-05-21T15:15:41.543Z,43.13
2023-05-21T15:18:41.365Z,42.63
2023-05-21T15:21:41.121Z,42.90
2023-05-21T15:24:40.115Z,43.06
2023-05-21T15:27:45.066Z,43.07
2023-05-21T15:30:43.954Z,42.34
2023-05-21T15:33:51.771Z,41.41
2023-05-21T15:36:51.603Z,41.85
2023-05-21T15:39:59.107Z,42.03
2023-05-21T15:43:06.234Z,42.11
2023-05-21T15:46:05.050Z,42.61
2023-05-21T15:49:03.783Z,42.96
2023-05-21T15:52:04.524Z,43.64
2023-05-21T15:55:04.351Z,43.36
2023-05-21T15:58:04.209Z,43.33
2023-05-21T16:01:03.226Z,43.28
2023-05-21T16:04:02.297Z,43.68
2023-05-21T16:07:01.061Z,43.82
2023-05-21T16:09:59.897Z,43.49
2023-05-21T16:12:58.641Z,43.23
2023-05-21T16:15:58.413Z,44.01
2023-05-21T16:18:57.263Z,44.22
2023-05-21T16:21:56.037Z,44.31
2023-05-21T16:24:55.817Z,45.01
2023-05-21T16:27:47.229Z,45.00
2023-05-21T16:30:54.376Z,44.99
2023-05-21T16:33:55.444Z,45.36
2023-05-21T16:36:56.183Z,45.76
2023-05-21T16:39:55.053Z,46.16
2023-05-21T16:42:53.869Z,46.38
2023-05-21T16:45:52.902Z,46.21
2023-05-21T16:48:53.190Z,46.36
2023-05-21T16:51:52.009Z,46.42
2023-05-21T16:54:59.691Z,46.67
2023-05-21T16:58:06.882Z,46.81
2023-05-21T17:01:07.394Z,47.28
2023-05-21T17:04:07.227Z,47.44
2023-05-21T17:07:05.994Z,47.37
2023-05-21T17:10:04.743Z,47.56
2023-05-21T17:13:17.459Z,47.69
2023-05-21T17:16:20.125Z,47.95
2023-05-21T17:19:19.142Z,48.12
2023-05-21T17:22:17.913Z,48.49
2023-05-21T17:25:16.734Z,48.70
2023-05-21T17:28:18.523Z,48.84
2023-05-21T17:31:19.559Z,49.08
2023-05-21T17:34:19.858Z,49.00
2023-05-21T17:37:20.055Z,48.96
2023-05-21T17:40:19.065Z,49.12
2023-05-21T17:43:18.602Z,49.13
2023-05-21T17:46:17.359Z,49.24
2023-05-21T17:49:24.756Z,49.24
2023-05-21T17:52:24.114Z,49.10
2023-05-21T17:55:30.253Z,49.38
2023-05-21T17:58:29.036Z,49.42
2023-05-21T18:01:27.996Z,49.72
2023-05-21T18:04:26.931Z,49.92
2023-05-21T18:07:25.856Z,49.81
2023-05-21T18:10:24.566Z,50.17
2023-05-21T18:13:24.822Z,50.17
2023-05-21T18:16:24.317Z,50.69
2023-05-21T18:19:31.591Z,50.82
2023-05-21T18:22:33.684Z,51.37
2023-05-21T18:25:26.251Z,51.68
2023-05-21T18:28:25.961Z,52.33
2023-05-21T18:31:33.222Z,52.75
2023-05-21T18:34:32.649Z,54.29
2023-05-21T18:37:36.756Z,55.02
2023-05-21T18:40:35.631Z,55.57
2023-05-21T18:43:31.927Z,56.24
2023-05-21T18:46:39.093Z,56.97
2023-05-21T18:49:41.144Z,57.27
2023-05-21T18:52:40.743Z,57.34
2023-05-21T18:55:40.237Z,58.20
2023-05-21T18:58:38.990Z,58.39
2023-05-21T19:01:39.834Z,59.03
2023-05-21T19:04:38.620Z,59.84
2023-05-21T19:07:39.216Z,60.49
2023-05-21T19:10:39.613Z,61.02
2023-05-21T19:13:32.261Z,61.50
2023-05-21T19:16:32.806Z,61.95
2023-05-21T19:19:32.198Z,62.48
2023-05-21T19:22:31.366Z,62.63
2023-05-21T19:25:32.486Z,62.83
2023-05-21T19:28:39.723Z,63.47
2023-05-21T19:31:46.998Z,64.08
2023-05-21T19:34:45.978Z,64.38
2023-05-21T19:37:53.299Z,64.26
2023-05-21T19:40:53.335Z,64.65
2023-05-21T19:43:44.029Z,65.39
2023-05-21T19:46:42.813Z,65.76
2023-05-21T19:49:41.517Z,65.71
2023-05-21T19:52:40.237Z,66.27
2023-05-21T19:55:39.264Z,66.69
2023-05-21T19:58:39.318Z,67.13
2023-05-21T20:01:38.298Z,67.51
2023-05-21T20:04:37.127Z,67.60
2023-05-21T20:07:36.134Z,67.87
2023-05-21T20:10:43.579Z,68.30
2023-05-21T20:13:43.273Z,68.72
2023-05-21T20:16:49.405Z,68.98
2023-05-21T20:19:48.273Z,69.28
2023-05-21T20:22:47.051Z,69.57
2023-05-21T20:25:45.778Z,69.85
2023-05-21T20:28:44.490Z,70.03
2023-05-21T20:31:44.391Z,70.41
2023-05-21T20:35:02.726Z,70.58
2023-05-21T20:38:02.617Z,70.88
2023-05-21T20:41:02.388Z,71.14
2023-05-21T20:44:01.306Z,71.43
2023-05-21T20:47:00.047Z,71.50
2023-05-21T20:49:58.705Z,71.69
2023-05-21T20:52:48.669Z,72.18
2023-05-21T20:55:51.375Z,72.21
2023-05-21T20:58:53.393Z,72.44
2023-05-21T21:01:54.091Z,72.49
2023-05-21T21:04:53.102Z,72.79
2023-05-21T21:07:53.477Z,72.91
2023-05-21T21:11:02.575Z,73.09
2023-05-21T21:14:01.933Z,73.23
2023-05-21T21:17:01.233Z,73.39
2023-05-21T21:20:01.412Z,73.45
2023-05-21T21:23:00.995Z,73.72
2023-05-21T21:26:08.074Z,73.92
2023-05-21T21:29:07.086Z,73.97
2023-05-21T21:32:06.307Z,74.19
2023-05-21T21:35:13.755Z,74.29
2023-05-21T21:38:06.321Z,74.43
2023-05-21T21:41:06.603Z,74.80
2023-05-21T21:44:06.647Z,74.75
2023-05-21T21:47:06.779Z,74.91
2023-05-21T21:50:05.472Z,75.05
2023-05-21T21:53:05.216Z,75.25
2023-05-21T21:56:06.962Z,75.55
2023-05-21T21:59:14.099Z,75.64
2023-05-21T22:02:21.302Z,75.86
2023-05-21T22:05:20.115Z,76.08
2023-05-21T22:08:27.210Z,76.09
2023-05-21T22:11:26.004Z,75.90
2023-05-21T22:14:24.767Z,76.18
2023-05-21T22:17:23.586Z,76.28
2023-05-21T22:20:30.486Z,76.43
2023-05-21T22:23:37.679Z,76.54
2023-05-21T22:26:46.010Z,76.70
2023-05-21T22:29:45.038Z,76.85
2023-05-21T22:32:43.786Z,76.88
2023-05-21T22:35:42.558Z,76.90
2023-05-21T22:38:41.242Z,76.92
2023-05-21T22:41:41.054Z,77.22
2023-05-21T22:44:39.776Z,77.35
2023-05-21T22:47:47.151Z,77.55
2023-05-21T22:50:46.760Z,77.58
2023-05-21T22:53:46.834Z,77.61
2023-05-21T22:56:46.264Z,77.62
2023-05-21T22:59:46.234Z,77.76
2023-05-21T23:02:45.528Z,77.93
2023-05-21T23:05:45.186Z,78.04
2023-05-21T23:08:47.699Z,78.05
2023-05-21T23:11:48.145Z,78.16
2023-05-21T23:14:46.881Z,78.32
2023-05-21T23:17:46.294Z,78.46
2023-05-21T23:20:45.045Z,78.71
2023-05-21T23:23:45.960Z,78.84
2023-05-21T23:26:53.088Z,79.03
2023-05-21T23:29:51.852Z,79.02
2023-05-21T23:32:50.657Z,79.02
2023-05-21T23:35:50.642Z,78.81
2023-05-21T23:38:51.582Z,78.86
2023-05-21T23:41:50.369Z,78.95
2023-05-21T23:44:57.101Z,79.02
2023-05-21T23:47:59.099Z,79.14
2023-05-21T23:50:57.859Z,79.28
2023-05-21T23:54:05.170Z,79.42
2023-05-21T23:57:03.873Z,79.73
